sensor_id;sensor_type;location;lat;lon;timestamp;P1;durP1;ratioP1;P2;durP2;ratioP2
7561;SDS011;3822;48.784;9.174;2022-08-07T00:01:10;2.30;;;1.40;;
7561;SDS011;3822;48.784;9.174;2022-08-07T00:03:37;1.63;;;1.20;;
7561;SDS011;3822;48.784;9.174;2022-08-07T00:06:04;3.30;;;1.33;;
7561;SDS011;3822;48.784;9.174;2022-08-07T00:08:32;1.87;;;1.30;;
7561;SDS011;3822;48.784;9.174;2022-08-07T00:10:58;1.20;;;1.00;;
7561;SDS011;3822;48.784;9.174;2022-08-07T00:13:25;2.37;;;1.60;;
7561;SDS011;3822;48.784;9.174;2022-08-07T00:15:52;2.33;;;1.53;;
7561;SDS011;3822;48.784;9.174;2022-08-07T00:18:20;1.60;;;1.40;;
7561;SDS011;3822;48.784;9.174;2022-08-07T00:20:52;3.30;;;1.73;;
7561;SDS011;3822;48.784;9.174;2022-08-07T00:23:21;1.40;;;1.10;;
7561;SDS011;3822;48.784;9.174;2022-08-07T00:25:48;1.90;;;1.37;;
7561;SDS011;3822;48.784;9.174;2022-08-07T00:28:15;1.80;;;1.10;;
7561;SDS011;3822;48.784;9.174;2022-08-07T00:30:42;1.60;;;1.20;;
7561;SDS011;3822;48.784;9.174;2022-08-07T00:33:09;1.93;;;1.00;;
7561;SDS011;3822;48.784;9.174;2022-08-07T00:35:35;1.40;;;1.00;;
7561;SDS011;3822;48.784;9.174;2022-08-07T00:38:02;1.10;;;1.00;;
7561;SDS011;3822;48.784;9.174;2022-08-07T00:40:30;2.60;;;1.03;;
7561;SDS011;3822;48.784;9.174;2022-08-07T00:42:57;1.73;;;1.30;;
7561;SDS011;3822;48.784;9.174;2022-08-07T00:45:23;2.40;;;1.67;;
7561;SDS011;3822;48.784;9.174;2022-08-07T00:47:50;3.80;;;2.00;;
7561;SDS011;3822;48.784;9.174;2022-08-07T00:50:16;2.97;;;2.00;;
7561;SDS011;3822;48.784;9.174;2022-08-07T00:52:43;4.20;;;2.00;;
7561;SDS011;3822;48.784;9.174;2022-08-07T00:55:10;2.23;;;1.60;;
7561;SDS011;3822;48.784;9.174;2022-08-07T00:57:36;2.50;;;1.63;;
7561;SDS011;3822;48.784;9.174;2022-08-07T01:00:04;4.10;;;1.80;;
7561;SDS011;3822;48.784;9.174;2022-08-07T01:02:32;1.97;;;1.50;;
7561;SDS011;3822;48.784;9.174;2022-08-07T01:05:01;7.17;;;1.97;;
7561;SDS011;3822;48.784;9.174;2022-08-07T01:07:31;2.07;;;1.57;;
7561;SDS011;3822;48.784;9.174;2022-08-07T01:09:58;5.80;;;2.40;;
7561;SDS011;3822;48.784;9.174;2022-08-07T01:12:24;2.20;;;1.50;;
7561;SDS011;3822;48.784;9.174;2022-08-07T01:14:51;2.37;;;1.60;;
7561;SDS011;3822;48.784;9.174;2022-08-07T01:17:17;1.93;;;1.50;;
7561;SDS011;3822;48.784;9.174;2022-08-07T01:19:44;3.13;;;1.50;;
7561;SDS011;3822;48.784;9.174;2022-08-07T01:22:11;3.30;;;1.30;;
7561;SDS011;3822;48.784;9.174;2022-08-07T01:24:38;3.63;;;1.60;;
7561;SDS011;3822;48.784;9.174;2022-08-07T01:27:05;1.90;;;1.57;;
7561;SDS011;3822;48.784;9.174;2022-08-07T01:29:33;2.27;;;1.77;;
7561;SDS011;3822;48.784;9.174;2022-08-07T01:31:59;1.93;;;1.70;;
7561;SDS011;3822;48.784;9.174;2022-08-07T01:34:29;2.07;;;1.30;;
7561;SDS011;3822;48.784;9.174;2022-08-07T01:36:57;1.80;;;1.37;;
7561;SDS011;3822;48.784;9.174;2022-08-07T01:39:25;3.00;;;1.50;;
7561;SDS011;3822;48.784;9.174;2022-08-07T01:41:52;2.00;;;1.43;;
7561;SDS011;3822;48.784;9.174;2022-08-07T01:44:19;3.97;;;1.53;;
7561;SDS011;3822;48.784;9.174;2022-08-07T01:46:46;3.10;;;2.20;;
7561;SDS011;3822;48.784;9.174;2022-08-07T01:49:13;3.30;;;2.17;;
7561;SDS011;3822;48.784;9.174;2022-08-07T01:51:40;2.83;;;1.73;;
7561;SDS011;3822;48.784;9.174;2022-08-07T01:54:10;3.13;;;1.40;;
7561;SDS011;3822;48.784;9.174;2022-08-07T01:56:45;3.07;;;1.70;;
7561;SDS011;3822;48.784;9.174;2022-08-07T01:59:22;2.43;;;1.67;;
7561;SDS011;3822;48.784;9.174;2022-08-07T02:01:58;2.10;;;1.70;;
7561;SDS011;3822;48.784;9.174;2022-08-07T02:04:51;2.67;;;1.87;;
7561;SDS011;3822;48.784;9.174;2022-08-07T02:07:25;2.33;;;1.70;;
7561;SDS011;3822;48.784;9.174;2022-08-07T02:10:08;2.03;;;1.60;;
7561;SDS011;3822;48.784;9.174;2022-08-07T02:12:40;2.00;;;1.50;;
7561;SDS011;3822;48.784;9.174;2022-08-07T02:15:09;2.00;;;1.80;;
7561;SDS011;3822;48.784;9.174;2022-08-07T02:17:37;3.53;;;1.97;;
7561;SDS011;3822;48.784;9.174;2022-08-07T02:20:06;3.83;;;2.53;;
7561;SDS011;3822;48.784;9.174;2022-08-07T02:22:37;4.50;;;2.43;;
7561;SDS011;3822;48.784;9.174;2022-08-07T02:25:05;2.60;;;1.90;;
7561;SDS011;3822;48.784;9.174;2022-08-07T02:27:34;1.63;;;1.50;;
7561;SDS011;3822;48.784;9.174;2022-08-07T02:30:03;5.07;;;1.83;;
7561;SDS011;3822;48.784;9.174;2022-08-07T02:32:31;1.43;;;1.30;;
7561;SDS011;3822;48.784;9.174;2022-08-07T02:35:01;2.00;;;1.60;;
7561;SDS011;3822;48.784;9.174;2022-08-07T02:37:31;2.30;;;1.30;;
7561;SDS011;3822;48.784;9.174;2022-08-07T02:40:00;1.87;;;1.43;;
7561;SDS011;3822;48.784;9.174;2022-08-07T02:42:30;2.40;;;1.17;;
7561;SDS011;3822;48.784;9.174;2022-08-07T02:44:58;2.93;;;1.30;;
7561;SDS011;3822;48.784;9.174;2022-08-07T02:47:28;2.27;;;1.57;;
7561;SDS011;3822;48.784;9.174;2022-08-07T02:49:55;1.60;;;1.20;;
7561;SDS011;3822;48.784;9.174;2022-08-07T02:55:25;2.93;;;1.50;;
7561;SDS011;3822;48.784;9.174;2022-08-07T02:57:57;1.40;;;1.20;;
7561;SDS011;3822;48.784;9.174;2022-08-07T03:00:29;1.60;;;1.00;;
7561;SDS011;3822;48.784;9.174;2022-08-07T03:02:59;1.80;;;1.20;;
7561;SDS011;3822;48.784;9.174;2022-08-07T03:05:27;2.27;;;1.30;;
7561;SDS011;3822;48.784;9.174;2022-08-07T03:07:54;4.53;;;1.57;;
7561;SDS011;3822;48.784;9.174;2022-08-07T03:10:21;1.97;;;1.40;;
7561;SDS011;3822;48.784;9.174;2022-08-07T03:12:49;1.20;;;1.10;;
7561;SDS011;3822;48.784;9.174;2022-08-07T03:15:16;1.33;;;1.20;;
7561;SDS011;3822;48.784;9.174;2022-08-07T03:17:43;2.00;;;1.30;;
7561;SDS011;3822;48.784;9.174;2022-08-07T03:20:11;2.30;;;1.10;;
7561;SDS011;3822;48.784;9.174;2022-08-07T03:22:39;2.20;;;1.20;;
7561;SDS011;3822;48.784;9.174;2022-08-07T03:25:07;3.53;;;1.20;;
7561;SDS011;3822;48.784;9.174;2022-08-07T03:27:34;2.60;;;1.10;;
7561;SDS011;3822;48.784;9.174;2022-08-07T03:30:01;2.20;;;1.00;;
7561;SDS011;3822;48.784;9.174;2022-08-07T03:32:36;2.23;;;1.30;;
7561;SDS011;3822;48.784;9.174;2022-08-07T03:35:07;2.60;;;1.40;;
7561;SDS011;3822;48.784;9.174;2022-08-07T03:37:38;1.63;;;1.10;;
7561;SDS011;3822;48.784;9.174;2022-08-07T03:40:06;1.60;;;1.13;;
7561;SDS011;3822;48.784;9.174;2022-08-07T03:42:34;1.60;;;1.00;;
7561;SDS011;3822;48.784;9.174;2022-08-07T03:45:01;1.97;;;0.93;;
7561;SDS011;3822;48.784;9.174;2022-08-07T03:47:29;1.70;;;1.30;;
7561;SDS011;3822;48.784;9.174;2022-08-07T03:49:56;1.30;;;1.10;;
7561;SDS011;3822;48.784;9.174;2022-08-07T03:52:25;1.40;;;1.10;;
7561;SDS011;3822;48.784;9.174;2022-08-07T03:54:57;1.40;;;1.10;;
7561;SDS011;3822;48.784;9.174;2022-08-07T03:57:25;1.60;;;1.20;;
7561;SDS011;3822;48.784;9.174;2022-08-07T03:59:53;1.97;;;1.30;;
7561;SDS011;3822;48.784;9.174;2022-08-07T04:02:21;2.03;;;1.40;;
7561;SDS011;3822;48.784;9.174;2022-08-07T04:04:48;2.93;;;1.10;;
7561;SDS011;3822;48.784;9.174;2022-08-07T04:07:16;2.53;;;1.40;;
7561;SDS011;3822;48.784;9.174;2022-08-07T04:09:44;2.10;;;1.10;;
7561;SDS011;3822;48.784;9.174;2022-08-07T04:12:12;1.20;;;1.10;;
7561;SDS011;3822;48.784;9.174;2022-08-07T04:14:40;1.97;;;1.10;;
7561;SDS011;3822;48.784;9.174;2022-08-07T04:17:07;2.43;;;1.20;;
7561;SDS011;3822;48.784;9.174;2022-08-07T04:19:34;1.40;;;1.10;;
7561;SDS011;3822;48.784;9.174;2022-08-07T04:22:01;1.47;;;1.10;;
7561;SDS011;3822;48.784;9.174;2022-08-07T04:24:28;1.57;;;1.30;;
7561;SDS011;3822;48.784;9.174;2022-08-07T04:26:56;2.13;;;1.30;;
7561;SDS011;3822;48.784;9.174;2022-08-07T04:29:24;1.50;;;1.30;;
7561;SDS011;3822;48.784;9.174;2022-08-07T04:31:50;3.23;;;1.53;;
7561;SDS011;3822;48.784;9.174;2022-08-07T04:34:17;1.87;;;1.40;;
7561;SDS011;3822;48.784;9.174;2022-08-07T04:36:46;1.63;;;1.33;;
7561;SDS011;3822;48.784;9.174;2022-08-07T04:39:13;2.43;;;1.67;;
7561;SDS011;3822;48.784;9.174;2022-08-07T04:41:40;1.83;;;1.47;;
7561;SDS011;3822;48.784;9.174;2022-08-07T04:44:07;1.40;;;1.30;;
7561;SDS011;3822;48.784;9.174;2022-08-07T04:46:40;1.73;;;1.53;;
7561;SDS011;3822;48.784;9.174;2022-08-07T04:49:16;3.73;;;1.53;;
7561;SDS011;3822;48.784;9.174;2022-08-07T04:55:12;2.53;;;1.37;;
7561;SDS011;3822;48.784;9.174;2022-08-07T04:58:04;2.73;;;1.37;;
7561;SDS011;3822;48.784;9.174;2022-08-07T05:00:50;2.03;;;1.37;;
7561;SDS011;3822;48.784;9.174;2022-08-07T05:03:40;2.03;;;1.23;;
7561;SDS011;3822;48.784;9.174;2022-08-07T05:06:24;3.13;;;1.30;;
7561;SDS011;3822;48.784;9.174;2022-08-07T05:09:07;1.63;;;1.27;;
7561;SDS011;3822;48.784;9.174;2022-08-07T05:11:46;3.50;;;1.60;;
7561;SDS011;3822;48.784;9.174;2022-08-07T05:16:58;1.67;;;1.33;;
7561;SDS011;3822;48.784;9.174;2022-08-07T05:19:37;1.70;;;1.43;;
7561;SDS011;3822;48.784;9.174;2022-08-07T05:22:09;1.57;;;1.40;;
7561;SDS011;3822;48.784;9.174;2022-08-07T05:24:38;2.03;;;1.50;;
7561;SDS011;3822;48.784;9.174;2022-08-07T05:27:07;4.03;;;1.60;;
7561;SDS011;3822;48.784;9.174;2022-08-07T05:29:35;3.50;;;1.77;;
7561;SDS011;3822;48.784;9.174;2022-08-07T05:32:05;1.97;;;1.63;;
7561;SDS011;3822;48.784;9.174;2022-08-07T05:34:34;1.67;;;1.57;;
7561;SDS011;3822;48.784;9.174;2022-08-07T05:37:01;2.53;;;1.73;;
7561;SDS011;3822;48.784;9.174;2022-08-07T05:39:29;2.10;;;1.70;;
7561;SDS011;3822;48.784;9.174;2022-08-07T05:41:56;1.70;;;1.60;;
7561;SDS011;3822;48.784;9.174;2022-08-07T05:44:23;5.13;;;1.70;;
7561;SDS011;3822;48.784;9.174;2022-08-07T05:46:50;4.70;;;2.50;;
7561;SDS011;3822;48.784;9.174;2022-08-07T05:49:17;2.43;;;2.00;;
7561;SDS011;3822;48.784;9.174;2022-08-07T05:51:46;2.40;;;2.20;;
7561;SDS011;3822;48.784;9.174;2022-08-07T05:54:13;2.40;;;2.07;;
7561;SDS011;3822;48.784;9.174;2022-08-07T05:56:41;2.73;;;2.00;;
7561;SDS011;3822;48.784;9.174;2022-08-07T05:59:18;2.10;;;1.90;;
7561;SDS011;3822;48.784;9.174;2022-08-07T06:01:46;2.80;;;2.20;;
7561;SDS011;3822;48.784;9.174;2022-08-07T06:04:15;2.60;;;2.20;;
7561;SDS011;3822;48.784;9.174;2022-08-07T06:06:45;2.17;;;1.90;;
7561;SDS011;3822;48.784;9.174;2022-08-07T06:09:13;2.60;;;1.80;;
7561;SDS011;3822;48.784;9.174;2022-08-07T06:11:41;2.40;;;1.93;;
7561;SDS011;3822;48.784;9.174;2022-08-07T06:14:08;2.30;;;1.73;;
7561;SDS011;3822;48.784;9.174;2022-08-07T06:16:35;4.30;;;2.13;;
7561;SDS011;3822;48.784;9.174;2022-08-07T06:19:04;3.20;;;2.37;;
7561;SDS011;3822;48.784;9.174;2022-08-07T06:21:31;2.30;;;1.63;;
7561;SDS011;3822;48.784;9.174;2022-08-07T06:23:58;4.23;;;1.70;;
7561;SDS011;3822;48.784;9.174;2022-08-07T06:26:24;2.53;;;2.00;;
7561;SDS011;3822;48.784;9.174;2022-08-07T06:28:51;2.80;;;2.00;;
7561;SDS011;3822;48.784;9.174;2022-08-07T06:31:21;2.20;;;2.00;;
7561;SDS011;3822;48.784;9.174;2022-08-07T06:33:48;2.33;;;2.10;;
7561;SDS011;3822;48.784;9.174;2022-08-07T06:36:14;3.87;;;2.40;;
7561;SDS011;3822;48.784;9.174;2022-08-07T06:38:41;3.50;;;2.10;;
7561;SDS011;3822;48.784;9.174;2022-08-07T06:41:10;2.70;;;2.23;;
7561;SDS011;3822;48.784;9.174;2022-08-07T06:43:43;2.47;;;1.80;;
7561;SDS011;3822;48.784;9.174;2022-08-07T06:46:12;3.13;;;2.33;;
7561;SDS011;3822;48.784;9.174;2022-08-07T06:48:40;3.70;;;2.17;;
7561;SDS011;3822;48.784;9.174;2022-08-07T06:51:08;3.40;;;2.43;;
7561;SDS011;3822;48.784;9.174;2022-08-07T06:53:39;2.77;;;2.00;;
7561;SDS011;3822;48.784;9.174;2022-08-07T06:56:07;4.87;;;2.07;;
7561;SDS011;3822;48.784;9.174;2022-08-07T06:58:36;3.40;;;1.90;;
7561;SDS011;3822;48.784;9.174;2022-08-07T07:01:05;2.90;;;2.50;;
7561;SDS011;3822;48.784;9.174;2022-08-07T07:03:36;3.50;;;2.47;;
7561;SDS011;3822;48.784;9.174;2022-08-07T07:06:04;4.80;;;2.60;;
7561;SDS011;3822;48.784;9.174;2022-08-07T07:08:34;2.60;;;2.20;;
7561;SDS011;3822;48.784;9.174;2022-08-07T07:11:03;3.70;;;2.40;;
7561;SDS011;3822;48.784;9.174;2022-08-07T07:13:37;3.23;;;2.50;;
7561;SDS011;3822;48.784;9.174;2022-08-07T07:16:13;2.20;;;1.87;;
7561;SDS011;3822;48.784;9.174;2022-08-07T07:18:54;2.80;;;2.30;;
7561;SDS011;3822;48.784;9.174;2022-08-07T07:21:29;2.67;;;2.40;;
7561;SDS011;3822;48.784;9.174;2022-08-07T07:24:03;9.07;;;2.80;;
7561;SDS011;3822;48.784;9.174;2022-08-07T07:26:30;5.63;;;2.50;;
7561;SDS011;3822;48.784;9.174;2022-08-07T07:29:01;2.87;;;2.10;;
7561;SDS011;3822;48.784;9.174;2022-08-07T07:31:34;4.37;;;2.20;;
7561;SDS011;3822;48.784;9.174;2022-08-07T07:34:08;3.47;;;1.87;;
7561;SDS011;3822;48.784;9.174;2022-08-07T07:36:38;7.30;;;2.77;;
7561;SDS011;3822;48.784;9.174;2022-08-07T07:39:07;2.87;;;2.40;;
7561;SDS011;3822;48.784;9.174;2022-08-07T07:41:36;3.20;;;2.40;;
7561;SDS011;3822;48.784;9.174;2022-08-07T07:44:06;2.20;;;1.93;;
7561;SDS011;3822;48.784;9.174;2022-08-07T07:46:36;2.00;;;1.80;;
7561;SDS011;3822;48.784;9.174;2022-08-07T07:49:07;4.50;;;2.67;;
7561;SDS011;3822;48.784;9.174;2022-08-07T07:51:36;3.53;;;1.87;;
7561;SDS011;3822;48.784;9.174;2022-08-07T07:54:04;2.73;;;1.90;;
7561;SDS011;3822;48.784;9.174;2022-08-07T07:56:32;2.20;;;1.80;;
7561;SDS011;3822;48.784;9.174;2022-08-07T07:59:00;2.83;;;2.00;;
7561;SDS011;3822;48.784;9.174;2022-08-07T08:01:30;2.77;;;1.60;;
7561;SDS011;3822;48.784;9.174;2022-08-07T08:03:59;3.27;;;1.70;;
7561;SDS011;3822;48.784;9.174;2022-08-07T08:06:29;2.20;;;1.70;;
7561;SDS011;3822;48.784;9.174;2022-08-07T08:08:59;2.40;;;1.87;;
7561;SDS011;3822;48.784;9.174;2022-08-07T08:11:28;1.97;;;1.77;;
7561;SDS011;3822;48.784;9.174;2022-08-07T08:13:56;3.40;;;2.10;;
7561;SDS011;3822;48.784;9.174;2022-08-07T08:16:33;2.50;;;1.70;;
7561;SDS011;3822;48.784;9.174;2022-08-07T08:19:04;1.80;;;1.50;;
7561;SDS011;3822;48.784;9.174;2022-08-07T08:21:36;2.63;;;1.60;;
7561;SDS011;3822;48.784;9.174;2022-08-07T08:24:24;4.37;;;1.30;;
7561;SDS011;3822;48.784;9.174;2022-08-07T08:27:12;2.50;;;1.47;;
7561;SDS011;3822;48.784;9.174;2022-08-07T08:29:44;2.13;;;1.40;;
7561;SDS011;3822;48.784;9.174;2022-08-07T08:32:17;3.80;;;1.57;;
7561;SDS011;3822;48.784;9.174;2022-08-07T08:34:47;2.10;;;1.43;;
7561;SDS011;3822;48.784;9.174;2022-08-07T08:37:15;3.60;;;1.37;;
7561;SDS011;3822;48.784;9.174;2022-08-07T08:39:43;2.03;;;1.30;;
7561;SDS011;3822;48.784;9.174;2022-08-07T08:42:17;1.43;;;1.30;;
7561;SDS011;3822;48.784;9.174;2022-08-07T08:47:49;1.40;;;1.30;;
7561;SDS011;3822;48.784;9.174;2022-08-07T08:50:22;1.83;;;1.30;;
7561;SDS011;3822;48.784;9.174;2022-08-07T09:04:16;1.70;;;1.20;;
7561;SDS011;3822;48.784;9.174;2022-08-07T09:07:35;1.70;;;1.03;;
7561;SDS011;3822;48.784;9.174;2022-08-07T09:24:49;2.40;;;1.57;;
7561;SDS011;3822;48.784;9.174;2022-08-07T09:31:19;1.30;;;1.20;;
7561;SDS011;3822;48.784;9.174;2022-08-07T09:36:35;1.23;;;1.13;;
7561;SDS011;3822;48.784;9.174;2022-08-07T09:39:19;1.77;;;1.10;;
7561;SDS011;3822;48.784;9.174;2022-08-07T09:53:36;4.47;;;1.37;;
7561;SDS011;3822;48.784;9.174;2022-08-07T10:05:13;1.43;;;1.00;;
7561;SDS011;3822;48.784;9.174;2022-08-07T10:11:24;4.57;;;1.57;;
7561;SDS011;3822;48.784;9.174;2022-08-07T10:30:06;1.20;;;1.10;;
7561;SDS011;3822;48.784;9.174;2022-08-07T10:35:52;1.63;;;1.20;;
7561;SDS011;3822;48.784;9.174;2022-08-07T10:38:47;1.20;;;1.10;;
7561;SDS011;3822;48.784;9.174;2022-08-07T10:41:37;1.00;;;0.90;;
7561;SDS011;3822;48.784;9.174;2022-08-07T10:44:22;1.93;;;1.20;;
7561;SDS011;3822;48.784;9.174;2022-08-07T10:47:19;1.93;;;0.97;;
7561;SDS011;3822;48.784;9.174;2022-08-07T10:50:02;1.60;;;1.20;;
7561;SDS011;3822;48.784;9.174;2022-08-07T10:52:52;2.37;;;1.17;;
7561;SDS011;3822;48.784;9.174;2022-08-07T10:55:21;1.30;;;1.00;;
7561;SDS011;3822;48.784;9.174;2022-08-07T11:00:48;1.17;;;1.07;;
7561;SDS011;3822;48.784;9.174;2022-08-07T11:03:28;1.57;;;1.07;;
7561;SDS011;3822;48.784;9.174;2022-08-07T11:06:10;1.20;;;1.00;;
7561;SDS011;3822;48.784;9.174;2022-08-07T11:08:49;1.70;;;1.20;;
7561;SDS011;3822;48.784;9.174;2022-08-07T11:11:36;2.03;;;1.10;;
7561;SDS011;3822;48.784;9.174;2022-08-07T11:14:25;2.53;;;1.60;;
7561;SDS011;3822;48.784;9.174;2022-08-07T11:19:38;1.47;;;1.10;;
7561;SDS011;3822;48.784;9.174;2022-08-07T11:27:51;2.17;;;1.40;;
7561;SDS011;3822;48.784;9.174;2022-08-07T11:30:40;2.80;;;1.63;;
7561;SDS011;3822;48.784;9.174;2022-08-07T11:33:53;4.73;;;1.60;;
7561;SDS011;3822;48.784;9.174;2022-08-07T11:37:01;1.53;;;1.00;;
7561;SDS011;3822;48.784;9.174;2022-08-07T11:43:04;1.53;;;1.00;;
7561;SDS011;3822;48.784;9.174;2022-08-07T11:51:28;1.53;;;1.23;;
7561;SDS011;3822;48.784;9.174;2022-08-07T12:00:15;1.33;;;1.10;;
7561;SDS011;3822;48.784;9.174;2022-08-07T12:11:38;3.50;;;1.30;;
7561;SDS011;3822;48.784;9.174;2022-08-07T12:14:15;1.53;;;1.10;;
7561;SDS011;3822;48.784;9.174;2022-08-07T12:17:09;1.43;;;1.00;;
7561;SDS011;3822;48.784;9.174;2022-08-07T12:28:15;2.00;;;1.17;;
7561;SDS011;3822;48.784;9.174;2022-08-07T12:30:50;2.83;;;1.17;;
7561;SDS011;3822;48.784;9.174;2022-08-07T12:33:22;1.43;;;1.20;;
7561;SDS011;3822;48.784;9.174;2022-08-07T12:35:53;1.80;;;1.13;;
7561;SDS011;3822;48.784;9.174;2022-08-07T12:38:21;1.23;;;1.10;;
7561;SDS011;3822;48.784;9.174;2022-08-07T12:40:49;2.60;;;1.40;;
7561;SDS011;3822;48.784;9.174;2022-08-07T12:43:18;1.30;;;1.10;;
7561;SDS011;3822;48.784;9.174;2022-08-07T12:52:00;1.47;;;1.10;;
7561;SDS011;3822;48.784;9.174;2022-08-07T12:54:47;1.63;;;0.93;;
7561;SDS011;3822;48.784;9.174;2022-08-07T12:57:24;2.50;;;1.10;;
7561;SDS011;3822;48.784;9.174;2022-08-07T12:59:55;3.73;;;1.30;;
7561;SDS011;3822;48.784;9.174;2022-08-07T13:11:26;2.23;;;1.40;;
7561;SDS011;3822;48.784;9.174;2022-08-07T13:14:36;1.53;;;1.10;;
7561;SDS011;3822;48.784;9.174;2022-08-07T13:17:23;1.40;;;0.80;;
7561;SDS011;3822;48.784;9.174;2022-08-07T13:20:05;1.10;;;1.00;;
7561;SDS011;3822;48.784;9.174;2022-08-07T13:22:44;1.10;;;1.00;;
7561;SDS011;3822;48.784;9.174;2022-08-07T13:25:31;2.40;;;1.00;;
7561;SDS011;3822;48.784;9.174;2022-08-07T13:28:22;1.50;;;1.20;;
7561;SDS011;3822;48.784;9.174;2022-08-07T13:31:09;1.30;;;0.90;;
7561;SDS011;3822;48.784;9.174;2022-08-07T13:33:54;1.50;;;1.10;;
7561;SDS011;3822;48.784;9.174;2022-08-07T13:36:33;1.93;;;1.10;;
7561;SDS011;3822;48.784;9.174;2022-08-07T13:39:14;1.20;;;1.00;;
7561;SDS011;3822;48.784;9.174;2022-08-07T13:41:53;1.67;;;1.20;;
7561;SDS011;3822;48.784;9.174;2022-08-07T13:44:23;3.20;;;1.20;;
7561;SDS011;3822;48.784;9.174;2022-08-07T13:46:55;1.50;;;1.10;;
7561;SDS011;3822;48.784;9.174;2022-08-07T13:49:25;1.63;;;0.90;;
7561;SDS011;3822;48.784;9.174;2022-08-07T13:52:03;1.80;;;1.27;;
7561;SDS011;3822;48.784;9.174;2022-08-07T13:54:32;5.67;;;1.20;;
7561;SDS011;3822;48.784;9.174;2022-08-07T13:57:02;3.40;;;1.40;;
7561;SDS011;3822;48.784;9.174;2022-08-07T13:59:36;2.17;;;1.17;;
7561;SDS011;3822;48.784;9.174;2022-08-07T14:02:11;5.17;;;1.00;;
7561;SDS011;3822;48.784;9.174;2022-08-07T14:04:47;2.50;;;1.10;;
7561;SDS011;3822;48.784;9.174;2022-08-07T14:07:16;2.57;;;1.03;;
7561;SDS011;3822;48.784;9.174;2022-08-07T14:09:46;1.67;;;0.97;;
7561;SDS011;3822;48.784;9.174;2022-08-07T14:12:18;4.40;;;2.03;;
7561;SDS011;3822;48.784;9.174;2022-08-07T14:15:19;1.63;;;1.00;;
7561;SDS011;3822;48.784;9.174;2022-08-07T14:20:47;1.43;;;1.13;;
7561;SDS011;3822;48.784;9.174;2022-08-07T14:23:19;1.00;;;0.90;;
7561;SDS011;3822;48.784;9.174;2022-08-07T14:28:58;1.73;;;1.37;;
7561;SDS011;3822;48.784;9.174;2022-08-07T14:31:28;3.63;;;1.80;;
7561;SDS011;3822;48.784;9.174;2022-08-07T14:33:56;2.30;;;1.57;;
7561;SDS011;3822;48.784;9.174;2022-08-07T14:36:24;1.87;;;1.37;;
7561;SDS011;3822;48.784;9.174;2022-08-07T14:38:51;1.40;;;1.07;;
7561;SDS011;3822;48.784;9.174;2022-08-07T14:41:25;2.17;;;0.90;;
7561;SDS011;3822;48.784;9.174;2022-08-07T14:43:57;1.23;;;0.90;;
7561;SDS011;3822;48.784;9.174;2022-08-07T14:46:29;1.53;;;1.10;;
7561;SDS011;3822;48.784;9.174;2022-08-07T14:48:56;1.67;;;1.50;;
7561;SDS011;3822;48.784;9.174;2022-08-07T14:51:25;1.47;;;1.37;;
7561;SDS011;3822;48.784;9.174;2022-08-07T14:53:59;1.30;;;1.17;;
7561;SDS011;3822;48.784;9.174;2022-08-07T14:56:28;1.13;;;1.03;;
7561;SDS011;3822;48.784;9.174;2022-08-07T14:59:01;1.90;;;1.20;;
7561;SDS011;3822;48.784;9.174;2022-08-07T15:01:33;1.53;;;1.10;;
7561;SDS011;3822;48.784;9.174;2022-08-07T15:04:04;1.20;;;0.97;;
7561;SDS011;3822;48.784;9.174;2022-08-07T15:06:32;1.97;;;1.13;;
7561;SDS011;3822;48.784;9.174;2022-08-07T15:09:04;1.97;;;0.90;;
7561;SDS011;3822;48.784;9.174;2022-08-07T15:11:39;4.03;;;1.20;;
7561;SDS011;3822;48.784;9.174;2022-08-07T15:14:25;1.20;;;1.00;;
7561;SDS011;3822;48.784;9.174;2022-08-07T15:16:53;2.40;;;1.07;;
7561;SDS011;3822;48.784;9.174;2022-08-07T15:19:28;2.60;;;0.90;;
7561;SDS011;3822;48.784;9.174;2022-08-07T15:22:01;1.53;;;0.90;;
7561;SDS011;3822;48.784;9.174;2022-08-07T15:24:33;1.07;;;0.93;;
7561;SDS011;3822;48.784;9.174;2022-08-07T15:29:35;1.10;;;1.00;;
7561;SDS011;3822;48.784;9.174;2022-08-07T15:32:05;2.67;;;1.83;;
7561;SDS011;3822;48.784;9.174;2022-08-07T15:34:40;2.17;;;1.50;;
7561;SDS011;3822;48.784;9.174;2022-08-07T15:37:29;1.00;;;0.90;;
7561;SDS011;3822;48.784;9.174;2022-08-07T15:40:01;2.90;;;1.10;;
7561;SDS011;3822;48.784;9.174;2022-08-07T15:45:11;2.23;;;0.90;;
7561;SDS011;3822;48.784;9.174;2022-08-07T15:48:01;1.73;;;1.50;;
7561;SDS011;3822;48.784;9.174;2022-08-07T15:50:39;2.30;;;1.70;;
7561;SDS011;3822;48.784;9.174;2022-08-07T15:53:15;1.47;;;0.97;;
7561;SDS011;3822;48.784;9.174;2022-08-07T15:55:53;1.20;;;1.10;;
7561;SDS011;3822;48.784;9.174;2022-08-07T15:58:37;1.43;;;1.10;;
7561;SDS011;3822;48.784;9.174;2022-08-07T16:01:25;1.10;;;0.97;;
7561;SDS011;3822;48.784;9.174;2022-08-07T16:03:58;3.10;;;1.47;;
7561;SDS011;3822;48.784;9.174;2022-08-07T16:06:29;1.40;;;1.20;;
7561;SDS011;3822;48.784;9.174;2022-08-07T16:09:02;1.70;;;1.20;;
7561;SDS011;3822;48.784;9.174;2022-08-07T16:17:48;1.60;;;1.30;;
7561;SDS011;3822;48.784;9.174;2022-08-07T16:34:38;2.00;;;1.30;;
7561;SDS011;3822;48.784;9.174;2022-08-07T16:37:26;1.30;;;1.20;;
7561;SDS011;3822;48.784;9.174;2022-08-07T16:43:21;1.50;;;1.20;;
7561;SDS011;3822;48.784;9.174;2022-08-07T16:55:36;2.20;;;1.63;;
7561;SDS011;3822;48.784;9.174;2022-08-07T16:58:19;1.93;;;1.33;;
7561;SDS011;3822;48.784;9.174;2022-08-07T17:03:41;1.30;;;1.20;;
7561;SDS011;3822;48.784;9.174;2022-08-07T17:06:34;3.40;;;0.97;;
7561;SDS011;3822;48.784;9.174;2022-08-07T17:15:03;1.10;;;0.90;;
7561;SDS011;3822;48.784;9.174;2022-08-07T17:31:17;1.20;;;0.97;;
7561;SDS011;3822;48.784;9.174;2022-08-07T17:33:53;2.00;;;1.20;;
7561;SDS011;3822;48.784;9.174;2022-08-07T17:36:59;1.10;;;0.83;;
7561;SDS011;3822;48.784;9.174;2022-08-07T17:42:30;1.60;;;1.20;;
7561;SDS011;3822;48.784;9.174;2022-08-07T17:45:15;1.10;;;1.00;;
7561;SDS011;3822;48.784;9.174;2022-08-07T17:47:48;1.20;;;0.90;;
7561;SDS011;3822;48.784;9.174;2022-08-07T17:53:37;1.80;;;1.20;;
7561;SDS011;3822;48.784;9.174;2022-08-07T17:56:27;1.17;;;0.97;;
7561;SDS011;3822;48.784;9.174;2022-08-07T17:59:14;1.43;;;1.00;;
7561;SDS011;3822;48.784;9.174;2022-08-07T18:05:13;1.40;;;1.10;;
7561;SDS011;3822;48.784;9.174;2022-08-07T18:10:50;1.33;;;1.10;;
7561;SDS011;3822;48.784;9.174;2022-08-07T18:13:47;1.40;;;1.03;;
7561;SDS011;3822;48.784;9.174;2022-08-07T18:16:43;1.80;;;1.03;;
7561;SDS011;3822;48.784;9.174;2022-08-07T18:22:29;1.70;;;0.90;;
7561;SDS011;3822;48.784;9.174;2022-08-07T18:24:54;1.77;;;1.00;;
7561;SDS011;3822;48.784;9.174;2022-08-07T18:31:04;1.10;;;1.00;;
7561;SDS011;3822;48.784;9.174;2022-08-07T18:45:08;1.37;;;1.00;;
7561;SDS011;3822;48.784;9.174;2022-08-07T18:48:12;2.40;;;1.40;;
7561;SDS011;3822;48.784;9.174;2022-08-07T18:50:45;1.60;;;1.17;;
7561;SDS011;3822;48.784;9.174;2022-08-07T18:56:18;1.60;;;1.00;;
7561;SDS011;3822;48.784;9.174;2022-08-07T19:01:57;4.63;;;1.77;;
7561;SDS011;3822;48.784;9.174;2022-08-07T19:04:42;2.43;;;1.70;;
7561;SDS011;3822;48.784;9.174;2022-08-07T19:10:17;2.07;;;1.40;;
7561;SDS011;3822;48.784;9.174;2022-08-07T19:18:48;2.47;;;1.20;;
7561;SDS011;3822;48.784;9.174;2022-08-07T19:21:46;1.33;;;1.00;;
7561;SDS011;3822;48.784;9.174;2022-08-07T19:24:41;1.37;;;1.13;;
7561;SDS011;3822;48.784;9.174;2022-08-07T19:27:13;1.53;;;1.03;;
7561;SDS011;3822;48.784;9.174;2022-08-07T19:29:45;1.10;;;1.00;;
7561;SDS011;3822;48.784;9.174;2022-08-07T19:32:22;1.43;;;1.07;;
7561;SDS011;3822;48.784;9.174;2022-08-07T19:34:55;1.60;;;1.10;;
7561;SDS011;3822;48.784;9.174;2022-08-07T19:37:27;1.43;;;0.90;;
7561;SDS011;3822;48.784;9.174;2022-08-07T19:39:57;1.13;;;1.00;;
7561;SDS011;3822;48.784;9.174;2022-08-07T19:42:29;1.97;;;1.10;;
7561;SDS011;3822;48.784;9.174;2022-08-07T19:44:58;2.20;;;1.23;;
7561;SDS011;3822;48.784;9.174;2022-08-07T19:47:29;1.90;;;1.20;;
7561;SDS011;3822;48.784;9.174;2022-08-07T19:49:55;3.13;;;1.40;;
7561;SDS011;3822;48.784;9.174;2022-08-07T19:52:26;1.60;;;1.13;;
7561;SDS011;3822;48.784;9.174;2022-08-07T19:54:54;2.40;;;1.50;;
7561;SDS011;3822;48.784;9.174;2022-08-07T19:57:27;2.00;;;1.70;;
7561;SDS011;3822;48.784;9.174;2022-08-07T20:00:07;2.90;;;2.00;;
7561;SDS011;3822;48.784;9.174;2022-08-07T20:02:38;2.27;;;1.70;;
7561;SDS011;3822;48.784;9.174;2022-08-07T20:05:13;1.20;;;1.10;;
7561;SDS011;3822;48.784;9.174;2022-08-07T20:07:45;1.53;;;1.20;;
7561;SDS011;3822;48.784;9.174;2022-08-07T20:10:20;1.30;;;1.07;;
7561;SDS011;3822;48.784;9.174;2022-08-07T20:12:52;1.90;;;1.30;;